Time;durP1;ratioP1;P1;durP2;ratioP2;P2;SDS_P1;SDS_P2;PMS_P1;PMS_P2;Temp;Humidity;BMP_temperature;BMP_pressure;BME280_temperature;BME280_humidity;BME280_pressure;Samples;Min_cycle;Max_cycle;Signal;HPM_P1;HPM_P2
2024/01/08 00:00:47;;;;;;;13.13;6.40;;;;;;;;;;5111501;28;20656;-78
2024/01/08 00:03:14;;;;;;;11.23;6.47;;;;;;;;;;5111849;28;20193;-79
2024/01/08 00:05:41;;;;;;;11.23;6.63;;;;;;;;;;5112115;28;20304;-79
2024/01/08 00:08:09;;;;;;;9.27;6.57;;;;;;;;;;5116328;28;20225;-78
2024/01/08 00:10:37;;;;;;;10.70;6.27;;;;;;;;;;5118282;28;20254;-78
2024/01/08 00:13:04;;;;;;;13.07;7.30;;;;;;;;;;5117958;28;20200;-78
2024/01/08 00:15:32;;;;;;;9.67;6.57;;;;;;;;;;5118516;28;20196;-77
2024/01/08 00:17:59;;;;;;;9.83;6.80;;;;;;;;;;5118587;28;20268;-79
2024/01/08 00:20:26;;;;;;;10.93;6.60;;;;;;;;;;5118402;28;20276;-78
2024/01/08 00:22:53;;;;;;;10.67;6.80;;;;;;;;;;5118488;28;20201;-78
2024/01/08 00:25:22;;;;;;;10.30;6.87;;;;;;;;;;5118483;28;20194;-78
2024/01/08 00:27:50;;;;;;;11.30;6.97;;;;;;;;;;5118658;27;20243;-79
2024/01/08 00:30:20;;;;;;;11.37;7.17;;;;;;;;;;5118317;27;20280;-78
2024/01/08 00:32:47;;;;;;;11.43;6.93;;;;;;;;;;5118631;28;20209;-78
2024/01/08 00:35:14;;;;;;;15.37;7.50;;;;;;;;;;5118428;27;20796;-78
2024/01/08 00:37:41;;;;;;;10.33;6.77;;;;;;;;;;5118180;28;20665;-79
2024/01/08 00:40:09;;;;;;;17.27;7.80;;;;;;;;;;5117641;28;20193;-78
2024/01/08 00:42:38;;;;;;;11.10;7.20;;;;;;;;;;5117904;28;20206;-78
2024/01/08 00:45:06;;;;;;;13.07;8.30;;;;;;;;;;5118580;28;20590;-77
2024/01/08 00:47:33;;;;;;;13.67;7.80;;;;;;;;;;5118264;28;20225;-78
2024/01/08 00:50:01;;;;;;;13.70;8.43;;;;;;;;;;5118156;28;20208;-78
2024/01/08 00:52:28;;;;;;;12.47;8.37;;;;;;;;;;5118321;28;20308;-78
2024/01/08 00:54:57;;;;;;;14.33;8.80;;;;;;;;;;5117941;28;20197;-78
2024/01/08 00:57:24;;;;;;;13.83;9.50;;;;;;;;;;5118062;28;20197;-79
2024/01/08 00:59:53;;;;;;;13.77;9.70;;;;;;;;;;5117790;28;20320;-79
2024/01/08 01:02:20;;;;;;;14.57;9.80;;;;;;;;;;5117690;28;20741;-78
2024/01/08 01:04:47;;;;;;;14.67;10.13;;;;;;;;;;5118012;28;20863;-78
2024/01/08 01:07:14;;;;;;;15.97;10.77;;;;;;;;;;5118177;28;20228;-79
2024/01/08 01:09:42;;;;;;;17.40;10.93;;;;;;;;;;5117729;28;20678;-78
2024/01/08 01:12:10;;;;;;;20.30;13.27;;;;;;;;;;5117664;28;20229;-78
2024/01/08 01:14:38;;;;;;;23.73;15.80;;;;;;;;;;5117530;28;20986;-77
2024/01/08 01:17:06;;;;;;;25.20;16.93;;;;;;;;;;5117925;28;20616;-78
2024/01/08 01:19:33;;;;;;;22.77;16.53;;;;;;;;;;5115713;28;20692;-78
2024/01/08 01:22:01;;;;;;;21.73;16.33;;;;;;;;;;5114442;28;20226;-78
2024/01/08 01:24:28;;;;;;;23.20;17.23;;;;;;;;;;5114409;28;20281;-78
2024/01/08 01:26:55;;;;;;;22.50;16.23;;;;;;;;;;5114555;28;20808;-78
2024/01/08 01:29:22;;;;;;;22.47;16.83;;;;;;;;;;5114516;28;20713;-77
2024/01/08 01:31:49;;;;;;;26.00;17.43;;;;;;;;;;5114216;28;20284;-78
2024/01/08 01:34:19;;;;;;;25.10;16.83;;;;;;;;;;5114176;28;20697;-78
2024/01/08 01:36:47;;;;;;;24.60;16.63;;;;;;;;;;5113957;28;20236;-78
2024/01/08 01:39:14;;;;;;;25.03;17.10;;;;;;;;;;5113931;28;20197;-78
2024/01/08 01:41:41;;;;;;;22.70;16.70;;;;;;;;;;5114380;28;20339;-78
2024/01/08 01:44:09;;;;;;;23.13;17.40;;;;;;;;;;5114613;28;20577;-78
2024/01/08 01:46:40;;;;;;;22.73;16.30;;;;;;;;;;5114136;28;20201;-78
2024/01/08 01:49:07;;;;;;;24.20;17.03;;;;;;;;;;5114291;28;20285;-77
2024/01/08 01:51:36;;;;;;;23.33;16.13;;;;;;;;;;5114144;28;20677;-78
2024/01/08 01:54:03;;;;;;;22.20;16.60;;;;;;;;;;5113499;28;20674;-77
2024/01/08 01:56:31;;;;;;;25.80;16.90;;;;;;;;;;5113913;28;20251;-78
2024/01/08 01:58:58;;;;;;;22.10;16.60;;;;;;;;;;5113750;28;20375;-78
2024/01/08 02:01:26;;;;;;;23.87;16.90;;;;;;;;;;5114205;28;20217;-78
2024/01/08 02:03:53;;;;;;;25.83;17.03;;;;;;;;;;5113380;28;20190;-77
2024/01/08 02:06:23;;;;;;;26.40;18.33;;;;;;;;;;5113812;28;20280;-78
2024/01/08 02:08:52;;;;;;;24.33;16.73;;;;;;;;;;5113954;28;20205;-80
2024/01/08 02:11:20;;;;;;;25.33;18.03;;;;;;;;;;5113683;28;20198;-79
2024/01/08 02:13:47;;;;;;;26.00;17.50;;;;;;;;;;5113677;28;20194;-79
2024/01/08 02:16:14;;;;;;;26.30;18.27;;;;;;;;;;5113559;28;20633;-79
2024/01/08 02:18:42;;;;;;;26.23;18.40;;;;;;;;;;5113610;28;20628;-79
2024/01/08 02:21:09;;;;;;;26.93;18.50;;;;;;;;;;5113404;28;20208;-79
2024/01/08 02:23:38;;;;;;;26.47;17.80;;;;;;;;;;5112739;28;20293;-79
2024/01/08 02:26:06;;;;;;;23.33;17.20;;;;;;;;;;5113348;28;20289;-80
2024/01/08 02:28:33;;;;;;;26.30;17.20;;;;;;;;;;5113207;28;20232;-78
2024/01/08 02:31:00;;;;;;;25.60;17.63;;;;;;;;;;5112098;28;20788;-79
2024/01/08 02:33:27;;;;;;;25.27;17.17;;;;;;;;;;5113259;28;20228;-80
2024/01/08 02:35:55;;;;;;;26.10;18.00;;;;;;;;;;5113170;28;20258;-79
2024/01/08 02:38:22;;;;;;;24.87;17.40;;;;;;;;;;5113118;28;20209;-80
2024/01/08 02:40:51;;;;;;;27.37;19.70;;;;;;;;;;5113392;28;20278;-79
2024/01/08 02:43:18;;;;;;;26.83;18.50;;;;;;;;;;5112849;28;20300;-79
2024/01/08 02:45:45;;;;;;;27.50;18.90;;;;;;;;;;5112896;28;20290;-79
2024/01/08 02:48:12;;;;;;;27.53;18.43;;;;;;;;;;5113192;28;20227;-79
2024/01/08 02:50:39;;;;;;;25.77;18.00;;;;;;;;;;5112719;28;20229;-80
2024/01/08 02:53:07;;;;;;;27.70;18.77;;;;;;;;;;5112840;28;20292;-81
2024/01/08 02:55:34;;;;;;;27.90;18.20;;;;;;;;;;5112522;28;20221;-80
2024/01/08 02:58:06;;;;;;;25.53;17.17;;;;;;;;;;5112552;28;20239;-79
2024/01/08 03:00:33;;;;;;;25.50;18.47;;;;;;;;;;5112638;28;20323;-80
2024/01/08 03:03:00;;;;;;;24.07;16.70;;;;;;;;;;5112469;28;20289;-79
2024/01/08 03:05:28;;;;;;;22.83;16.80;;;;;;;;;;5111870;28;20201;-80
2024/01/08 03:07:55;;;;;;;22.00;15.43;;;;;;;;;;5112754;28;20316;-80
2024/01/08 03:10:22;;;;;;;20.00;14.00;;;;;;;;;;5112456;28;20718;-80
2024/01/08 03:12:49;;;;;;;20.80;13.67;;;;;;;;;;5112488;28;20678;-80
2024/01/08 03:15:18;;;;;;;19.10;13.40;;;;;;;;;;5112414;28;20242;-79
2024/01/08 03:17:45;;;;;;;19.43;13.20;;;;;;;;;;5112260;28;20296;-79
2024/01/08 03:20:13;;;;;;;21.00;12.93;;;;;;;;;;5112029;28;20289;-79
2024/01/08 03:22:40;;;;;;;18.90;12.83;;;;;;;;;;5112008;28;20573;-79
2024/01/08 03:25:07;;;;;;;18.93;13.17;;;;;;;;;;5112176;28;20238;-79
2024/01/08 03:27:35;;;;;;;20.77;13.30;;;;;;;;;;5112138;28;20225;-79
2024/01/08 03:30:02;;;;;;;20.53;13.20;;;;;;;;;;5112194;28;20963;-80
2024/01/08 03:32:30;;;;;;;21.20;13.97;;;;;;;;;;5110996;28;20202;-79
2024/01/08 03:34:58;;;;;;;22.00;14.30;;;;;;;;;;5103826;28;20749;-79
2024/01/08 03:37:25;;;;;;;20.87;13.60;;;;;;;;;;5109008;28;20693;-78
2024/01/08 03:39:52;;;;;;;20.70;13.07;;;;;;;;;;5112238;28;20290;-79
2024/01/08 03:42:19;;;;;;;21.47;13.93;;;;;;;;;;5111535;28;20204;-79
2024/01/08 03:44:46;;;;;;;23.07;14.50;;;;;;;;;;5111985;28;20283;-79
2024/01/08 03:47:13;;;;;;;22.97;14.83;;;;;;;;;;5112017;28;20217;-78
2024/01/08 03:49:42;;;;;;;20.97;14.30;;;;;;;;;;5111717;28;20279;-79
2024/01/08 03:52:10;;;;;;;23.60;15.13;;;;;;;;;;5111996;28;20234;-80
2024/01/08 03:54:37;;;;;;;24.37;14.50;;;;;;;;;;5111510;28;20201;-79
2024/01/08 03:57:04;;;;;;;22.83;14.90;;;;;;;;;;5112018;28;20562;-79
2024/01/08 03:59:32;;;;;;;24.50;15.53;;;;;;;;;;5111406;28;20254;-78
2024/01/08 04:01:59;;;;;;;22.97;14.77;;;;;;;;;;5111711;28;20647;-79
2024/01/08 04:04:26;;;;;;;24.33;14.87;;;;;;;;;;5111350;28;20195;-79
2024/01/08 04:06:54;;;;;;;24.57;15.17;;;;;;;;;;5111551;28;20754;-79
2024/01/08 04:09:22;;;;;;;25.73;15.73;;;;;;;;;;5111162;28;20308;-79
2024/01/08 04:11:49;;;;;;;23.87;14.93;;;;;;;;;;5111480;28;20189;-79
2024/01/08 04:14:16;;;;;;;22.57;14.53;;;;;;;;;;5111691;28;20285;-79
2024/01/08 04:16:44;;;;;;;25.17;15.80;;;;;;;;;;5111504;28;20277;-79
2024/01/08 04:19:11;;;;;;;24.33;14.97;;;;;;;;;;5111193;28;20296;-78
2024/01/08 04:21:38;;;;;;;23.43;14.80;;;;;;;;;;5111352;28;20668;-80
2024/01/08 04:24:07;;;;;;;23.30;14.97;;;;;;;;;;5111414;28;20553;-79
2024/01/08 04:26:34;;;;;;;24.17;15.10;;;;;;;;;;5111389;28;20224;-79
2024/01/08 04:29:02;;;;;;;23.73;14.57;;;;;;;;;;5111150;28;20225;-79
2024/01/08 04:31:31;;;;;;;23.40;14.80;;;;;;;;;;5111566;28;20750;-78
2024/01/08 04:33:58;;;;;;;24.20;14.60;;;;;;;;;;5111037;28;20202;-79
2024/01/08 04:36:25;;;;;;;24.60;14.63;;;;;;;;;;5111398;28;20194;-79
2024/01/08 04:38:52;;;;;;;25.50;15.10;;;;;;;;;;5111829;28;20296;-79
2024/01/08 04:41:21;;;;;;;24.57;14.47;;;;;;;;;;5110968;28;20284;-80
2024/01/08 04:43:49;;;;;;;23.83;14.43;;;;;;;;;;5111175;28;20708;-80
2024/01/08 04:46:16;;;;;;;23.90;14.33;;;;;;;;;;5111347;28;20232;-80
2024/01/08 04:48:43;;;;;;;23.90;14.03;;;;;;;;;;5110945;28;20977;-79
2024/01/08 04:51:20;;;;;;;22.07;13.37;;;;;;;;;;5111249;28;20201;-79
2024/01/08 04:53:48;;;;;;;22.23;13.90;;;;;;;;;;5111902;28;20217;-78
2024/01/08 04:56:20;;;;;;;22.97;13.40;;;;;;;;;;5114914;28;20582;-79
2024/01/08 04:58:48;;;;;;;23.63;14.30;;;;;;;;;;5115390;28;20193;-79
2024/01/08 05:01:16;;;;;;;21.57;13.13;;;;;;;;;;5114455;28;20293;-79
2024/01/08 05:03:43;;;;;;;23.13;14.13;;;;;;;;;;5114926;28;20201;-78
2024/01/08 05:06:11;;;;;;;22.47;13.63;;;;;;;;;;5115767;28;20235;-79
2024/01/08 05:08:38;;;;;;;22.40;13.23;;;;;;;;;;5115081;28;20229;-79
2024/01/08 05:11:06;;;;;;;23.53;14.20;;;;;;;;;;5114468;28;20196;-79
2024/01/08 05:13:33;;;;;;;23.03;14.07;;;;;;;;;;5115282;28;20219;-79
2024/01/08 05:16:02;;;;;;;21.07;12.90;;;;;;;;;;5114703;28;20288;-79
2024/01/08 05:18:30;;;;;;;25.93;13.57;;;;;;;;;;5114397;28;20231;-79
2024/01/08 05:20:57;;;;;;;21.47;13.50;;;;;;;;;;5114889;28;20355;-79
2024/01/08 05:23:24;;;;;;;22.23;13.90;;;;;;;;;;5114467;28;20205;-79
2024/01/08 05:25:52;;;;;;;21.33;12.93;;;;;;;;;;5114812;28;20297;-79
2024/01/08 05:28:19;;;;;;;22.80;13.37;;;;;;;;;;5114130;28;20313;-79
2024/01/08 05:30:46;;;;;;;22.87;13.23;;;;;;;;;;5114560;28;20280;-79
2024/01/08 05:33:15;;;;;;;21.60;13.30;;;;;;;;;;5114261;28;20243;-78
2024/01/08 05:35:42;;;;;;;24.13;13.83;;;;;;;;;;5114432;28;20284;-79
2024/01/08 05:38:09;;;;;;;23.37;13.40;;;;;;;;;;5105817;28;20201;-78
2024/01/08 05:40:36;;;;;;;22.40;13.97;;;;;;;;;;5100976;28;20237;-78
2024/01/08 05:43:04;;;;;;;22.47;13.17;;;;;;;;;;5095836;28;20219;-78
2024/01/08 05:45:31;;;;;;;24.70;15.17;;;;;;;;;;5092961;28;20250;-79
2024/01/08 05:47:58;;;;;;;25.70;14.33;;;;;;;;;;5093829;28;20308;-78
2024/01/08 05:50:27;;;;;;;24.17;14.43;;;;;;;;;;5093518;28;20205;-79
2024/01/08 05:52:55;;;;;;;24.60;14.70;;;;;;;;;;5094043;28;20218;-79
2024/01/08 05:55:22;;;;;;;24.80;15.00;;;;;;;;;;5093527;28;20200;-79
2024/01/08 05:57:49;;;;;;;26.10;15.33;;;;;;;;;;5093412;28;20236;-79
2024/01/08 06:00:17;;;;;;;25.77;15.10;;;;;;;;;;5093385;28;20324;-79
2024/01/08 06:02:44;;;;;;;24.00;14.70;;;;;;;;;;5093497;28;20258;-78
2024/01/08 06:05:12;;;;;;;24.77;14.87;;;;;;;;;;5093246;28;20291;-80
2024/01/08 06:07:41;;;;;;;28.17;15.90;;;;;;;;;;5108635;28;20580;-79
2024/01/08 06:10:09;;;;;;;27.43;15.50;;;;;;;;;;5113848;28;20287;-80
2024/01/08 06:12:36;;;;;;;27.43;15.73;;;;;;;;;;5113916;28;20281;-79
2024/01/08 06:15:03;;;;;;;40.63;24.47;;;;;;;;;;5113369;28;20833;-80
2024/01/08 06:17:31;;;;;;;29.40;18.57;;;;;;;;;;5113781;28;20599;-79
2024/01/08 06:19:58;;;;;;;128.13;56.33;;;;;;;;;;5113754;28;20278;-79
2024/01/08 06:22:26;;;;;;;115.20;49.60;;;;;;;;;;5113204;28;20295;-80
2024/01/08 06:24:54;;;;;;;144.17;65.00;;;;;;;;;;5113196;28;20196;-79
2024/01/08 06:27:21;;;;;;;80.73;49.03;;;;;;;;;;5113570;28;20280;-80
2024/01/08 06:29:49;;;;;;;168.63;83.87;;;;;;;;;;5112993;28;20225;-79
2024/01/08 06:32:16;;;;;;;73.57;47.57;;;;;;;;;;5113370;28;20222;-79
2024/01/08 06:34:43;;;;;;;31.20;19.20;;;;;;;;;;5113290;28;20201;-80
2024/01/08 06:37:10;;;;;;;56.13;38.90;;;;;;;;;;5112717;28;20739;-78
2024/01/08 06:39:38;;;;;;;42.63;27.00;;;;;;;;;;5113055;28;20210;-79
2024/01/08 06:42:07;;;;;;;43.43;29.70;;;;;;;;;;5113096;28;20192;-80
2024/01/08 06:44:34;;;;;;;40.87;29.97;;;;;;;;;;5109691;28;20210;-81
2024/01/08 06:47:01;;;;;;;39.73;29.00;;;;;;;;;;5109074;28;20224;-80
2024/01/08 06:49:28;;;;;;;32.17;21.73;;;;;;;;;;5107062;28;20250;-80
2024/01/08 06:51:56;;;;;;;29.23;17.90;;;;;;;;;;5108410;28;20285;-78
2024/01/08 06:54:23;;;;;;;24.50;14.23;;;;;;;;;;5112135;28;20295;-80
2024/01/08 06:56:50;;;;;;;47.57;30.77;;;;;;;;;;5112882;28;20233;-79
2024/01/08 06:59:19;;;;;;;29.10;21.20;;;;;;;;;;5112040;28;20338;-79
2024/01/08 07:01:47;;;;;;;36.27;23.80;;;;;;;;;;5112699;28;20194;-79
2024/01/08 07:04:14;;;;;;;25.03;16.40;;;;;;;;;;5112804;28;20556;-79
2024/01/08 07:06:41;;;;;;;21.87;14.13;;;;;;;;;;5112229;28;20195;-79
2024/01/08 07:09:09;;;;;;;23.57;15.03;;;;;;;;;;5112409;28;20230;-80
2024/01/08 07:11:36;;;;;;;21.20;13.90;;;;;;;;;;5112149;28;20277;-79
2024/01/08 07:14:03;;;;;;;19.23;13.07;;;;;;;;;;5112696;28;20292;-80
2024/01/08 07:16:32;;;;;;;18.63;11.47;;;;;;;;;;5112000;28;20190;-79
2024/01/08 07:18:59;;;;;;;18.83;10.80;;;;;;;;;;5111221;28;20290;-78
2024/01/08 07:21:27;;;;;;;16.33;11.10;;;;;;;;;;5111961;28;20194;-78
2024/01/08 07:23:55;;;;;;;16.47;10.53;;;;;;;;;;5111609;28;20205;-79
2024/01/08 07:26:22;;;;;;;14.60;9.80;;;;;;;;;;5111760;28;20201;-78
2024/01/08 07:28:49;;;;;;;17.83;11.97;;;;;;;;;;5112051;28;20320;-78
2024/01/08 07:31:16;;;;;;;16.83;10.93;;;;;;;;;;5112379;28;20288;-79
2024/01/08 07:33:45;;;;;;;13.87;9.17;;;;;;;;;;5112076;28;20260;-78
2024/01/08 07:36:12;;;;;;;15.57;10.93;;;;;;;;;;5111763;28;20285;-78
2024/01/08 07:38:39;;;;;;;13.57;8.77;;;;;;;;;;5112077;28;20959;-77
2024/01/08 07:41:07;;;;;;;23.30;14.37;;;;;;;;;;5111391;28;20682;-78
2024/01/08 07:43:35;;;;;;;18.70;12.83;;;;;;;;;;5112041;28;20191;-78
2024/01/08 07:46:03;;;;;;;14.23;10.00;;;;;;;;;;5111802;28;20222;-79
2024/01/08 07:48:30;;;;;;;16.60;12.33;;;;;;;;;;5111337;28;20287;-79
2024/01/08 07:50:58;;;;;;;16.10;10.57;;;;;;;;;;5111728;28;20639;-79
2024/01/08 07:53:26;;;;;;;31.17;19.60;;;;;;;;;;5111732;28;20221;-80
2024/01/08 07:55:53;;;;;;;24.43;15.80;;;;;;;;;;5111167;28;20616;-80
2024/01/08 07:58:20;;;;;;;18.13;12.63;;;;;;;;;;5112273;28;20280;-79
2024/01/08 08:00:47;;;;;;;30.07;17.33;;;;;;;;;;5111198;28;20338;-80
2024/01/08 08:03:15;;;;;;;16.93;10.17;;;;;;;;;;5111254;28;20621;-79
2024/01/08 08:05:42;;;;;;;22.80;14.13;;;;;;;;;;5110847;28;20729;-79
2024/01/08 08:08:10;;;;;;;30.27;19.70;;;;;;;;;;5111745;28;20197;-79
2024/01/08 08:10:37;;;;;;;19.57;12.27;;;;;;;;;;5110847;28;20688;-79
2024/01/08 08:13:05;;;;;;;26.27;16.23;;;;;;;;;;5111428;28;20286;-80
2024/01/08 08:15:32;;;;;;;12.20;7.80;;;;;;;;;;5111556;28;20195;-80
2024/01/08 08:17:59;;;;;;;11.80;8.20;;;;;;;;;;5111705;28;20196;-80
2024/01/08 08:20:26;;;;;;;14.13;8.50;;;;;;;;;;5111299;28;20202;-79
2024/01/08 08:22:52;;;;;;;105.87;49.37;;;;;;;;;;5111594;28;20296;-79
2024/01/08 08:25:21;;;;;;;18.63;13.07;;;;;;;;;;5111388;28;20194;-78
2024/01/08 08:27:48;;;;;;;13.53;10.07;;;;;;;;;;5111643;28;20199;-79
2024/01/08 08:30:16;;;;;;;17.00;11.63;;;;;;;;;;5115276;28;20231;-80
2024/01/08 08:32:43;;;;;;;9.10;6.47;;;;;;;;;;5115213;28;20597;-78
2024/01/08 08:35:11;;;;;;;11.90;8.80;;;;;;;;;;5115411;28;20288;-80
2024/01/08 08:37:38;;;;;;;12.73;9.83;;;;;;;;;;5115450;28;20228;-79
2024/01/08 08:40:05;;;;;;;16.13;12.57;;;;;;;;;;5115301;28;20217;-80
2024/01/08 08:42:34;;;;;;;7.97;6.53;;;;;;;;;;5111658;28;20361;-79
2024/01/08 08:45:01;;;;;;;8.20;6.30;;;;;;;;;;5103967;28;20236;-79
2024/01/08 08:47:28;;;;;;;7.23;6.20;;;;;;;;;;5094519;28;20639;-79
2024/01/08 08:49:55;;;;;;;7.77;6.57;;;;;;;;;;5094489;28;20268;-79
2024/01/08 08:52:23;;;;;;;8.40;6.97;;;;;;;;;;5094605;28;20284;-79
2024/01/08 08:54:50;;;;;;;7.43;6.20;;;;;;;;;;5094282;28;20228;-80
2024/01/08 08:57:17;;;;;;;7.00;5.97;;;;;;;;;;5094355;28;20785;-80
2024/01/08 08:59:46;;;;;;;10.43;6.37;;;;;;;;;;5094318;28;20272;-79
2024/01/08 09:02:13;;;;;;;7.83;6.47;;;;;;;;;;5094311;28;20226;-79
2024/01/08 09:04:40;;;;;;;8.77;6.90;;;;;;;;;;5098837;28;20233;-79
2024/01/08 09:07:07;;;;;;;7.50;5.50;;;;;;;;;;5106265;28;20264;-80
2024/01/08 09:09:35;;;;;;;6.37;5.30;;;;;;;;;;5114528;28;20249;-79
2024/01/08 09:12:02;;;;;;;6.20;5.60;;;;;;;;;;5114769;28;20204;-79
2024/01/08 09:14:30;;;;;;;6.20;5.60;;;;;;;;;;5114556;28;20194;-78
2024/01/08 09:16:58;;;;;;;9.80;7.30;;;;;;;;;;5114613;28;20266;-78
2024/01/08 09:19:26;;;;;;;5.17;4.67;;;;;;;;;;5114567;28;20200;-78
2024/01/08 09:21:53;;;;;;;6.23;5.63;;;;;;;;;;5114484;28;20221;-78
2024/01/08 09:24:20;;;;;;;4.77;4.27;;;;;;;;;;5114161;28;20201;-78
2024/01/08 09:26:47;;;;;;;10.10;9.20;;;;;;;;;;5114303;28;20572;-79
2024/01/08 09:29:14;;;;;;;5.30;4.80;;;;;;;;;;5114273;28;20252;-78
2024/01/08 09:31:41;;;;;;;5.10;4.60;;;;;;;;;;5114154;28;20247;-79
2024/01/08 09:34:10;;;;;;;6.10;4.13;;;;;;;;;;5114638;28;20637;-78
2024/01/08 09:36:37;;;;;;;14.53;9.07;;;;;;;;;;5113578;28;20285;-78
2024/01/08 09:39:04;;;;;;;6.23;4.77;;;;;;;;;;5114160;28;20197;-79
2024/01/08 09:41:32;;;;;;;8.13;6.30;;;;;;;;;;5113363;28;20194;-78
2024/01/08 09:44:01;;;;;;;9.83;6.70;;;;;;;;;;5114462;28;20194;-79
2024/01/08 09:46:30;;;;;;;6.77;5.40;;;;;;;;;;5113808;28;20233;-80
2024/01/08 09:48:57;;;;;;;9.73;6.40;;;;;;;;;;5113452;28;20287;-79
2024/01/08 09:51:26;;;;;;;13.00;7.73;;;;;;;;;;5113659;28;20193;-79
2024/01/08 09:53:55;;;;;;;8.43;6.70;;;;;;;;;;5113662;28;20292;-79
2024/01/08 09:56:24;;;;;;;8.77;6.47;;;;;;;;;;5113395;28;20741;-81
2024/01/08 09:58:51;;;;;;;11.70;7.17;;;;;;;;;;5093657;28;20229;-81
2024/01/08 10:01:18;;;;;;;8.47;5.63;;;;;;;;;;5108557;28;20276;-81
2024/01/08 10:03:45;;;;;;;6.97;4.50;;;;;;;;;;5113606;28;20297;-80
2024/01/08 10:06:12;;;;;;;12.43;8.07;;;;;;;;;;5103191;28;20237;-80
2024/01/08 10:08:41;;;;;;;11.43;7.70;;;;;;;;;;5113942;28;20236;-79
2024/01/08 10:11:08;;;;;;;10.10;6.27;;;;;;;;;;5113537;28;20221;-81
2024/01/08 10:13:36;;;;;;;8.50;6.27;;;;;;;;;;5113566;28;20670;-79
2024/01/08 10:16:04;;;;;;;7.77;6.07;;;;;;;;;;5113016;28;20229;-80
2024/01/08 10:18:31;;;;;;;6.43;5.00;;;;;;;;;;5113070;28;20292;-80
2024/01/08 10:21:11;;;;;;;6.17;5.00;;;;;;;;;;5109112;28;20242;-81
2024/01/08 10:23:39;;;;;;;10.47;8.33;;;;;;;;;;5104822;28;20232;-80
2024/01/08 10:26:07;;;;;;;5.13;4.40;;;;;;;;;;5112873;28;20247;-81
2024/01/08 10:28:37;;;;;;;8.63;6.80;;;;;;;;;;5112282;28;20270;-80
2024/01/08 10:31:05;;;;;;;10.80;9.10;;;;;;;;;;5112877;28;20709;-80
2024/01/08 10:33:32;;;;;;;7.00;5.87;;;;;;;;;;5113280;28;20565;-81
2024/01/08 10:36:01;;;;;;;7.93;6.77;;;;;;;;;;5112418;28;20247;-82
2024/01/08 10:38:31;;;;;;;6.80;5.40;;;;;;;;;;5113049;28;20276;-80
2024/01/08 10:41:00;;;;;;;8.00;6.10;;;;;;;;;;5113525;28;20194;-79
2024/01/08 10:43:29;;;;;;;5.43;4.60;;;;;;;;;;5112754;28;20563;-80
2024/01/08 10:45:58;;;;;;;5.23;4.20;;;;;;;;;;5112810;28;20209;-79
2024/01/08 10:48:29;;;;;;;5.10;3.80;;;;;;;;;;5112716;28;20198;-80
2024/01/08 10:50:57;;;;;;;6.13;4.20;;;;;;;;;;5112120;28;20230;-80
2024/01/08 10:53:29;;;;;;;6.70;4.37;;;;;;;;;;5111927;28;20198;-80
2024/01/08 10:55:58;;;;;;;5.60;4.40;;;;;;;;;;5112790;28;20190;-80
2024/01/08 10:58:31;;;;;;;9.33;7.60;;;;;;;;;;5112808;28;20193;-80
2024/01/08 11:01:00;;;;;;;6.23;4.93;;;;;;;;;;5112349;28;20320;-80
2024/01/08 11:03:27;;;;;;;8.30;6.37;;;;;;;;;;5112298;28;20225;-77
2024/01/08 11:05:55;;;;;;;9.97;8.47;;;;;;;;;;5112741;28;20198;-80
2024/01/08 11:08:23;;;;;;;7.13;5.10;;;;;;;;;;5112688;28;20678;-80
2024/01/08 11:10:51;;;;;;;7.43;6.27;;;;;;;;;;5112461;28;20225;-81
2024/01/08 11:13:19;;;;;;;7.10;5.50;;;;;;;;;;5112373;28;20219;-81
2024/01/08 11:15:46;;;;;;;5.97;4.47;;;;;;;;;;5112094;28;20190;-80
2024/01/08 11:18:26;;;;;;;6.87;4.60;;;;;;;;;;5112006;28;20189;-81
2024/01/08 11:20:56;;;;;;;22.93;17.27;;;;;;;;;;5112210;28;20204;-79
2024/01/08 11:23:33;;;;;;;7.90;4.83;;;;;;;;;;5112352;28;20193;-79
2024/01/08 11:26:02;;;;;;;6.37;4.40;;;;;;;;;;5112214;28;20290;-79
2024/01/08 11:28:30;;;;;;;6.40;5.00;;;;;;;;;;5112361;28;20259;-79
2024/01/08 11:31:13;;;;;;;6.40;5.00;;;;;;;;;;5109507;28;20218;-79
2024/01/08 11:33:50;;;;;;;6.07;4.80;;;;;;;;;;5097267;28;20221;-78
2024/01/08 11:36:20;;;;;;;10.93;8.13;;;;;;;;;;5098962;28;20198;-78
2024/01/08 11:38:54;;;;;;;19.43;14.90;;;;;;;;;;5110520;28;20221;-79
2024/01/08 11:41:22;;;;;;;11.00;8.30;;;;;;;;;;5111564;28;20223;-80
2024/01/08 11:43:49;;;;;;;8.00;6.00;;;;;;;;;;5111100;28;20681;-79
2024/01/08 11:46:17;;;;;;;7.40;5.87;;;;;;;;;;5110340;28;20196;-78
2024/01/08 11:48:46;;;;;;;7.37;5.60;;;;;;;;;;5109994;28;20194;-78
2024/01/08 11:51:13;;;;;;;7.20;5.63;;;;;;;;;;5110487;28;20243;-78
2024/01/08 11:53:41;;;;;;;6.13;4.83;;;;;;;;;;5110379;28;20968;-78
2024/01/08 11:56:08;;;;;;;7.27;5.60;;;;;;;;;;5108212;28;20194;-78
2024/01/08 11:58:35;;;;;;;8.23;6.77;;;;;;;;;;5110239;28;20232;-79
2024/01/08 12:01:16;;;;;;;8.83;5.50;;;;;;;;;;5110044;28;20268;-78
2024/01/08 12:03:43;;;;;;;7.43;6.03;;;;;;;;;;5109924;28;20266;-78
2024/01/08 12:06:11;;;;;;;7.77;6.03;;;;;;;;;;5111630;28;20190;-75
2024/01/08 12:08:38;;;;;;;7.40;5.63;;;;;;;;;;5111559;28;20189;-77
2024/01/08 12:11:06;;;;;;;9.40;6.10;;;;;;;;;;5111041;28;20274;-77
2024/01/08 12:13:33;;;;;;;6.63;5.50;;;;;;;;;;5111770;28;20194;-77
2024/01/08 12:16:01;;;;;;;8.53;7.17;;;;;;;;;;5110384;28;20198;-76
2024/01/08 12:18:28;;;;;;;9.13;8.17;;;;;;;;;;5111483;28;20581;-79
2024/01/08 12:20:56;;;;;;;8.33;6.50;;;;;;;;;;5111629;28;20229;-79
2024/01/08 12:23:26;;;;;;;10.17;8.87;;;;;;;;;;5111660;28;20221;-79
2024/01/08 12:25:53;;;;;;;10.17;9.13;;;;;;;;;;5111183;28;20197;-79
2024/01/08 12:28:20;;;;;;;6.97;6.03;;;;;;;;;;5111228;28;20250;-79
2024/01/08 12:30:47;;;;;;;15.90;12.07;;;;;;;;;;5110653;28;20221;-77
2024/01/08 12:33:15;;;;;;;6.63;5.83;;;;;;;;;;5111203;28;20194;-78
2024/01/08 12:35:42;;;;;;;7.43;5.53;;;;;;;;;;5111375;28;20631;-79
2024/01/08 12:38:11;;;;;;;7.30;6.40;;;;;;;;;;5111457;28;20265;-78
2024/01/08 12:40:40;;;;;;;7.27;5.97;;;;;;;;;;5110742;28;20229;-77
2024/01/08 12:43:07;;;;;;;7.77;6.53;;;;;;;;;;5111284;28;20554;-79
2024/01/08 12:45:34;;;;;;;7.10;5.63;;;;;;;;;;5111323;28;20266;-78
2024/01/08 12:48:01;;;;;;;7.80;6.07;;;;;;;;;;5111371;28;20674;-78
2024/01/08 12:50:28;;;;;;;6.73;5.50;;;;;;;;;;5110815;28;20214;-78
2024/01/08 12:52:56;;;;;;;6.40;5.70;;;;;;;;;;5110809;28;20577;-79
2024/01/08 12:55:24;;;;;;;6.93;5.50;;;;;;;;;;5111561;28;20197;-79
2024/01/08 12:57:57;;;;;;;7.17;5.73;;;;;;;;;;5111296;28;20190;-78
2024/01/08 13:00:25;;;;;;;7.17;5.80;;;;;;;;;;5108582;28;20245;-79
2024/01/08 13:02:52;;;;;;;8.47;6.33;;;;;;;;;;5101789;28;20674;-79
2024/01/08 13:05:19;;;;;;;8.20;6.13;;;;;;;;;;5096235;28;20202;-79
2024/01/08 13:07:47;;;;;;;13.17;7.73;;;;;;;;;;5090634;28;20234;-78
2024/01/08 13:10:14;;;;;;;9.47;6.47;;;;;;;;;;5107572;28;20229;-79
2024/01/08 13:12:41;;;;;;;8.03;6.13;;;;;;;;;;5111251;28;20268;-79
2024/01/08 13:15:10;;;;;;;9.23;6.70;;;;;;;;;;5111659;28;20202;-79
2024/01/08 13:17:38;;;;;;;10.27;7.57;;;;;;;;;;5116761;27;20193;-79
2024/01/08 13:20:08;;;;;;;9.73;7.13;;;;;;;;;;5116244;27;20213;-79
2024/01/08 13:22:35;;;;;;;10.83;7.63;;;;;;;;;;5119218;27;20190;-79
2024/01/08 13:25:03;;;;;;;10.50;6.73;;;;;;;;;;5115640;27;20196;-79
2024/01/08 13:27:30;;;;;;;8.13;6.30;;;;;;;;;;5130293;27;20225;-78
2024/01/08 13:29:57;;;;;;;9.87;6.90;;;;;;;;;;5120904;27;20197;-79
2024/01/08 13:32:26;;;;;;;8.63;6.70;;;;;;;;;;5122520;27;20673;-79
2024/01/08 13:34:53;;;;;;;8.53;6.50;;;;;;;;;;5125127;27;20186;-79
2024/01/08 13:37:20;;;;;;;8.47;6.30;;;;;;;;;;5115887;27;20361;-78
2024/01/08 13:39:48;;;;;;;8.77;6.50;;;;;;;;;;5120185;27;20216;-78
2024/01/08 13:42:17;;;;;;;9.90;6.83;;;;;;;;;;5123813;27;20231;-79
2024/01/08 13:44:44;;;;;;;7.73;6.30;;;;;;;;;;5127513;27;20206;-78
2024/01/08 13:47:11;;;;;;;7.83;6.43;;;;;;;;;;5116846;27;20229;-79
2024/01/08 13:49:40;;;;;;;10.00;7.20;;;;;;;;;;5129243;27;20224;-79
2024/01/08 13:52:07;;;;;;;12.97;9.07;;;;;;;;;;5122496;27;20279;-78
2024/01/08 13:54:34;;;;;;;12.23;7.90;;;;;;;;;;5120995;27;20237;-78
2024/01/08 13:57:01;;;;;;;26.77;20.63;;;;;;;;;;5130388;27;20198;-78
2024/01/08 13:59:28;;;;;;;8.53;7.17;;;;;;;;;;5116183;27;20272;-78
2024/01/08 14:01:56;;;;;;;11.33;9.03;;;;;;;;;;5125682;27;20205;-77
2024/01/08 14:04:23;;;;;;;12.33;9.50;;;;;;;;;;5123956;27;20192;-78
2024/01/08 14:06:52;;;;;;;27.50;19.33;;;;;;;;;;5118218;27;20220;-77
2024/01/08 14:09:19;;;;;;;11.47;8.97;;;;;;;;;;5130424;27;20199;-77
2024/01/08 14:11:47;;;;;;;15.63;12.43;;;;;;;;;;5111829;27;20612;-78
2024/01/08 14:14:15;;;;;;;11.27;9.50;;;;;;;;;;5113760;27;20605;-78
2024/01/08 14:16:42;;;;;;;10.90;8.10;;;;;;;;;;5113643;27;20200;-77
2024/01/08 14:19:10;;;;;;;8.97;7.07;;;;;;;;;;5112796;27;20607;-77
2024/01/08 14:21:37;;;;;;;9.73;6.90;;;;;;;;;;5117946;27;20199;-78
2024/01/08 14:24:06;;;;;;;10.07;8.10;;;;;;;;;;5126694;27;20269;-77
2024/01/08 14:26:33;;;;;;;8.53;7.63;;;;;;;;;;5121235;27;20235;-77
2024/01/08 14:29:00;;;;;;;9.00;7.40;;;;;;;;;;5128783;27;20739;-77